Time;durP1;ratioP1;P1;durP2;ratioP2;P2;SDS_P1;SDS_P2;PMS_P1;PMS_P2;Temp;Humidity;BMP_temperature;BMP_pressure;BME280_temperature;BME280_humidity;BME280_pressure;Samples;Min_cycle;Max_cycle;Signal;HPM_P1;HPM_P2
2023/03/16 00:02:23;;;;;;;1.90;1.90;;;17.10;63.80;;;;;;5055775;28;43555;-72
2023/03/16 00:04:51;;;;;;;2.00;2.00;;;17.10;64.10;;;;;;5060214;28;44417;-72
2023/03/16 00:07:20;;;;;;;1.93;1.93;;;17.10;64.00;;;;;;5050537;28;45258;-72
2023/03/16 00:09:48;;;;;;;2.10;2.10;;;17.20;63.70;;;;;;5066990;28;43430;-72
2023/03/16 00:12:17;;;;;;;1.87;1.87;;;17.30;63.40;;;;;;5053448;28;44060;-72
2023/03/16 00:14:47;;;;;;;1.70;1.70;;;17.30;63.40;;;;;;5055259;28;43780;-72
2023/03/16 00:17:18;;;;;;;1.90;1.90;;;17.20;63.40;;;;;;5062385;28;43455;-72
2023/03/16 00:19:47;;;;;;;1.70;1.70;;;17.20;63.70;;;;;;5054096;28;43419;-72
2023/03/16 00:22:15;;;;;;;1.70;1.70;;;17.20;63.50;;;;;;5053538;28;43434;-72
2023/03/16 00:24:44;;;;;;;1.87;1.87;;;17.20;63.50;;;;;;5053456;28;43840;-73
2023/03/16 00:27:13;;;;;;;1.77;1.77;;;17.20;63.60;;;;;;5049445;28;43491;-73
2023/03/16 00:29:46;;;;;;;1.80;1.80;;;17.10;63.60;;;;;;5058291;28;43429;-71
2023/03/16 00:32:16;;;;;;;1.70;1.70;;;17.10;63.70;;;;;;5054651;28;43981;-70
2023/03/16 00:34:44;;;;;;;2.00;2.00;;;17.10;63.80;;;;;;5047452;28;44729;-71
2023/03/16 00:37:14;;;;;;;2.00;2.00;;;17.10;64.00;;;;;;5056494;28;43838;-72
2023/03/16 00:39:45;;;;;;;2.00;2.00;;;17.20;63.80;;;;;;5051941;28;43750;-71
2023/03/16 00:42:14;;;;;;;1.90;1.90;;;17.20;63.40;;;;;;5061705;28;43514;-72
2023/03/16 00:44:42;;;;;;;1.77;1.77;;;17.30;63.20;;;;;;5056251;28;44082;-72
2023/03/16 00:47:13;;;;;;;1.90;1.90;;;17.30;63.20;;;;;;5054273;28;43334;-71
2023/03/16 00:49:41;;;;;;;1.80;1.80;;;17.30;63.40;;;;;;5051911;28;44050;-72
2023/03/16 00:52:13;;;;;;;1.80;1.80;;;17.20;63.50;;;;;;5056513;28;43402;-72
2023/03/16 00:54:42;;;;;;;1.70;1.70;;;17.20;63.40;;;;;;5060586;28;46167;-72
2023/03/16 00:57:12;;;;;;;1.63;1.63;;;17.20;63.50;;;;;;5061505;28;43387;-72
2023/03/16 00:59:41;;;;;;;1.80;1.80;;;17.20;63.50;;;;;;5063013;28;43419;-72
2023/03/16 01:02:11;;;;;;;1.80;1.80;;;17.20;63.60;;;;;;5053898;28;43429;-72
2023/03/16 01:04:40;;;;;;;1.73;1.73;;;17.10;63.60;;;;;;5050691;28;45931;-72
2023/03/16 01:07:08;;;;;;;1.80;1.80;;;17.10;63.90;;;;;;5051899;28;44453;-73
2023/03/16 01:09:36;;;;;;;2.00;1.90;;;17.10;63.70;;;;;;5060972;28;43362;-71
2023/03/16 01:12:05;;;;;;;1.90;1.90;;;17.10;63.70;;;;;;5054104;28;43431;-72
2023/03/16 01:14:35;;;;;;;1.80;1.80;;;17.10;63.70;;;;;;5050655;28;45798;-72
2023/03/16 01:17:04;;;;;;;1.87;1.87;;;17.10;63.70;;;;;;5053752;28;43356;-72
2023/03/16 01:19:34;;;;;;;1.70;1.70;;;17.10;63.80;;;;;;5051276;28;43385;-73
2023/03/16 01:22:04;;;;;;;1.90;1.90;;;17.00;63.90;;;;;;5056653;28;43441;-73
2023/03/16 01:24:34;;;;;;;1.70;1.70;;;17.10;63.90;;;;;;5053866;28;46116;-71
2023/03/16 01:27:03;;;;;;;1.80;1.80;;;17.10;63.80;;;;;;5054831;28;44116;-72
2023/03/16 01:29:31;;;;;;;1.63;1.63;;;17.10;63.80;;;;;;5048383;28;43448;-73
2023/03/16 01:32:01;;;;;;;1.90;1.90;;;17.00;63.70;;;;;;5058644;28;43569;-73
2023/03/16 01:34:29;;;;;;;1.77;1.77;;;17.00;63.80;;;;;;5053501;28;47023;-72
2023/03/16 01:36:57;;;;;;;1.70;1.70;;;17.00;63.90;;;;;;5050732;28;43843;-73
2023/03/16 01:39:45;;;;;;;1.83;1.83;;;17.00;63.90;;;;;;5042697;28;43389;-72
2023/03/16 01:42:16;;;;;;;1.70;1.70;;;17.20;63.70;;;;;;5047994;28;43418;-73
2023/03/16 01:44:54;;;;;;;1.80;1.80;;;17.30;63.20;;;;;;5054811;28;45820;-72
2023/03/16 01:47:27;;;;;;;1.80;1.80;;;17.40;62.90;;;;;;5051502;28;43386;-72
2023/03/16 01:49:56;;;;;;;1.70;1.70;;;17.30;62.80;;;;;;5053243;28;43822;-72
2023/03/16 01:52:28;;;;;;;1.73;1.73;;;17.30;62.90;;;;;;5047020;28;43909;-71
2023/03/16 01:54:58;;;;;;;1.83;1.83;;;17.30;63.10;;;;;;5057025;28;44044;-72
2023/03/16 01:57:29;;;;;;;1.60;1.60;;;17.30;63.00;;;;;;5047809;28;44584;-72
2023/03/16 02:00:06;;;;;;;1.60;1.60;;;17.20;63.00;;;;;;5055789;28;43427;-72
2023/03/16 02:02:49;;;;;;;1.67;1.67;;;17.20;63.20;;;;;;5051684;28;43550;-77
2023/03/16 02:05:26;;;;;;;1.73;1.73;;;17.20;63.30;;;;;;5050775;28;43782;-76
2023/03/16 02:07:57;;;;;;;1.70;1.70;;;17.10;63.50;;;;;;5052631;28;44362;-77
2023/03/16 02:10:26;;;;;;;1.80;1.80;;;17.10;63.70;;;;;;5051925;28;43348;-76
2023/03/16 02:12:56;;;;;;;1.60;1.60;;;17.10;63.50;;;;;;5054545;28;43407;-77
2023/03/16 02:15:26;;;;;;;1.60;1.60;;;17.10;63.60;;;;;;5049782;28;45364;-77
2023/03/16 02:17:56;;;;;;;1.57;1.57;;;17.10;63.70;;;;;;5047242;28;44653;-77
2023/03/16 02:20:32;;;;;;;1.50;1.50;;;17.10;63.70;;;;;;5046702;28;43414;-78
2023/03/16 02:23:00;;;;;;;1.80;1.80;;;17.00;63.70;;;;;;5051209;28;43351;-77
2023/03/16 02:25:31;;;;;;;1.77;1.77;;;17.00;63.80;;;;;;5047764;28;45214;-77
2023/03/16 02:28:03;;;;;;;1.63;1.63;;;17.00;63.70;;;;;;5053718;28;43965;-77
2023/03/16 02:30:33;;;;;;;1.50;1.50;;;17.10;63.80;;;;;;5047708;28;43377;-77
2023/03/16 02:33:03;;;;;;;1.73;1.73;;;17.00;63.70;;;;;;5064485;28;43608;-78
2023/03/16 02:35:32;;;;;;;1.80;1.80;;;17.00;63.70;;;;;;5049664;28;45714;-77
2023/03/16 02:38:01;;;;;;;1.70;1.70;;;17.00;63.80;;;;;;5047560;28;43491;-78
2023/03/16 02:40:34;;;;;;;1.70;1.70;;;17.00;63.90;;;;;;5054092;28;43384;-78
2023/03/16 02:43:07;;;;;;;1.80;1.80;;;17.10;64.00;;;;;;5047953;28;44023;-76
2023/03/16 02:45:43;;;;;;;1.53;1.53;;;17.20;63.70;;;;;;5056214;28;43991;-77
2023/03/16 02:48:14;;;;;;;1.60;1.60;;;17.30;63.20;;;;;;5050785;28;43340;-77
2023/03/16 02:50:46;;;;;;;1.60;1.60;;;17.30;62.90;;;;;;5047824;28;43503;-78
2023/03/16 02:53:15;;;;;;;1.60;1.60;;;17.30;62.90;;;;;;5056074;28;43523;-78
2023/03/16 02:55:43;;;;;;;1.60;1.60;;;17.30;63.20;;;;;;5059342;28;45457;-74
2023/03/16 02:58:11;;;;;;;1.83;1.83;;;17.20;63.10;;;;;;5059093;28;44970;-77
2023/03/16 03:00:41;;;;;;;1.60;1.60;;;17.20;63.10;;;;;;5059664;28;43453;-77
2023/03/16 03:03:09;;;;;;;1.47;1.47;;;17.20;63.20;;;;;;5062143;28;43625;-77
2023/03/16 03:05:38;;;;;;;1.50;1.50;;;17.20;63.30;;;;;;5051861;28;45414;-79
2023/03/16 03:08:06;;;;;;;1.60;1.60;;;17.10;63.40;;;;;;5049069;28;43808;-78
2023/03/16 03:10:34;;;;;;;1.50;1.50;;;17.10;63.70;;;;;;5048609;28;43720;-78
2023/03/16 03:13:02;;;;;;;1.80;1.80;;;17.10;63.50;;;;;;5050270;28;44070;-77
2023/03/16 03:15:31;;;;;;;1.53;1.53;;;17.10;63.60;;;;;;5049519;28;44032;-77
2023/03/16 03:18:06;;;;;;;1.77;1.77;;;17.10;63.60;;;;;;5045555;28;43407;-78
2023/03/16 03:20:34;;;;;;;1.70;1.70;;;17.00;63.50;;;;;;5051761;28;43363;-77
2023/03/16 03:23:02;;;;;;;1.40;1.40;;;17.00;63.60;;;;;;5057138;28;43418;-77
2023/03/16 03:25:33;;;;;;;1.70;1.60;;;17.00;63.80;;;;;;5045634;28;45736;-77
2023/03/16 03:28:01;;;;;;;1.53;1.53;;;17.00;63.70;;;;;;5057413;28;43401;-77
2023/03/16 03:30:31;;;;;;;1.40;1.40;;;17.00;63.60;;;;;;5056469;28;43444;-76
2023/03/16 03:33:00;;;;;;;1.47;1.47;;;17.00;63.70;;;;;;5045738;28;43523;-76
2023/03/16 03:35:30;;;;;;;1.60;1.60;;;17.00;63.70;;;;;;5046229;28;45792;-76
2023/03/16 03:37:58;;;;;;;1.50;1.50;;;17.00;63.80;;;;;;5049227;28;44677;-76
2023/03/16 03:40:27;;;;;;;1.70;1.60;;;17.00;63.80;;;;;;5049529;28;43439;-77
2023/03/16 03:42:58;;;;;;;1.50;1.50;;;17.00;63.90;;;;;;5052371;28;43875;-76
2023/03/16 03:45:27;;;;;;;1.50;1.50;;;17.10;63.60;;;;;;5059860;28;44048;-74
2023/03/16 03:47:56;;;;;;;1.50;1.50;;;17.20;63.20;;;;;;5056334;28;44269;-76
2023/03/16 03:50:24;;;;;;;1.70;1.70;;;17.30;62.90;;;;;;5052518;28;43866;-77
2023/03/16 03:53:20;;;;;;;1.63;1.63;;;17.30;62.90;;;;;;5054813;28;43408;-75
2023/03/16 03:56:10;;;;;;;1.60;1.60;;;17.20;63.00;;;;;;5052589;28;45670;-77
2023/03/16 03:58:39;;;;;;;1.67;1.67;;;17.20;63.20;;;;;;5050571;28;44745;-75
2023/03/16 04:01:08;;;;;;;1.60;1.60;;;17.20;63.20;;;;;;5059395;28;43380;-73
2023/03/16 04:03:36;;;;;;;1.50;1.50;;;17.10;63.20;;;;;;5048363;28;43435;-76
2023/03/16 04:06:07;;;;;;;1.43;1.43;;;17.10;63.30;;;;;;5049418;28;45594;-78
2023/03/16 04:08:36;;;;;;;1.53;1.53;;;17.10;63.40;;;;;;5054700;28;43978;-77
2023/03/16 04:11:08;;;;;;;1.60;1.60;;;17.10;63.60;;;;;;5062189;28;43469;-71
2023/03/16 04:13:36;;;;;;;1.60;1.60;;;17.00;63.70;;;;;;5058975;28;44450;-79
2023/03/16 04:16:05;;;;;;;1.43;1.43;;;17.00;63.40;;;;;;5048610;28;43803;-77
2023/03/16 04:18:40;;;;;;;1.60;1.60;;;17.10;63.70;;;;;;5055662;28;44749;-78
2023/03/16 04:21:14;;;;;;;1.57;1.57;;;17.00;63.60;;;;;;5049008;28;43501;-76
2023/03/16 04:23:44;;;;;;;1.70;1.70;;;17.00;63.60;;;;;;5052077;28;43434;-76
2023/03/16 04:26:12;;;;;;;1.80;1.70;;;16.90;63.60;;;;;;5062684;28;43926;-78
2023/03/16 04:28:43;;;;;;;1.50;1.50;;;16.90;63.80;;;;;;5056185;28;43401;-77
2023/03/16 04:31:14;;;;;;;1.70;1.70;;;17.00;63.90;;;;;;5053568;28;43412;-74
2023/03/16 04:33:44;;;;;;;1.60;1.60;;;17.10;63.70;;;;;;5054093;28;43431;-78
2023/03/16 04:36:13;;;;;;;1.40;1.40;;;17.20;63.20;;;;;;5055560;28;45205;-75
2023/03/16 04:38:41;;;;;;;1.60;1.60;;;17.20;63.00;;;;;;5056788;28;44105;-76
2023/03/16 04:41:12;;;;;;;1.70;1.70;;;17.20;63.10;;;;;;5056735;28;43502;-75
2023/03/16 04:43:49;;;;;;;1.60;1.60;;;17.10;63.90;;;;;;5056347;28;43479;-79
2023/03/16 04:46:20;;;;;;;1.60;1.60;;;17.10;63.40;;;;;;5057128;28;45404;-76
2023/03/16 04:48:48;;;;;;;1.60;1.60;;;17.10;63.10;;;;;;5062990;28;45017;-78
2023/03/16 04:51:16;;;;;;;1.60;1.60;;;17.10;63.30;;;;;;5051788;28;43402;-75
2023/03/16 04:53:58;;;;;;;1.73;1.73;;;17.10;63.30;;;;;;5060980;28;43931;-76
2023/03/16 04:56:34;;;;;;;1.50;1.50;;;17.10;63.40;;;;;;5060156;28;46012;-77
2023/03/16 04:59:06;;;;;;;1.90;1.90;;;17.00;63.40;;;;;;5055409;28;43420;-77
2023/03/16 05:02:00;;;;;;;1.80;1.80;;;17.00;64.30;;;;;;5050223;28;43432;-75
2023/03/16 05:04:28;;;;;;;1.60;1.60;;;17.00;63.30;;;;;;5050040;28;43885;-77
2023/03/16 05:06:56;;;;;;;1.67;1.67;;;17.10;63.50;;;;;;5051530;28;45432;-78
2023/03/16 05:09:29;;;;;;;1.60;1.60;;;17.10;63.50;;;;;;5047802;28;44965;-75
2023/03/16 05:11:59;;;;;;;1.53;1.53;;;17.00;63.50;;;;;;5056001;28;43387;-77
2023/03/16 05:14:27;;;;;;;1.67;1.67;;;17.00;63.50;;;;;;5058511;28;44001;-76
2023/03/16 05:17:13;;;;;;;1.50;1.50;;;17.00;63.60;;;;;;5053217;28;44923;-76
2023/03/16 05:19:42;;;;;;;1.50;1.50;;;17.00;63.40;;;;;;5055379;28;44676;-77
2023/03/16 05:22:11;;;;;;;1.53;1.53;;;17.00;63.40;;;;;;5050481;28;43546;-77
2023/03/16 05:24:48;;;;;;;1.70;1.70;;;17.00;63.50;;;;;;5049930;28;43488;-75
2023/03/16 05:27:17;;;;;;;1.60;1.60;;;17.00;63.50;;;;;;5047730;28;44278;-78
2023/03/16 05:29:46;;;;;;;1.40;1.40;;;17.00;63.60;;;;;;5052168;28;44353;-77
2023/03/16 05:32:15;;;;;;;1.60;1.60;;;17.00;63.60;;;;;;5047501;28;43489;-77
2023/03/16 05:34:45;;;;;;;1.60;1.60;;;17.00;63.80;;;;;;5047365;28;44868;-77
2023/03/16 05:37:14;;;;;;;1.60;1.60;;;17.00;63.60;;;;;;5051454;28;45667;-77
2023/03/16 05:39:42;;;;;;;1.43;1.43;;;17.10;63.30;;;;;;5058234;28;44935;-76
2023/03/16 05:42:10;;;;;;;1.50;1.50;;;17.30;63.00;;;;;;5059206;28;43416;-76
2023/03/16 05:44:44;;;;;;;1.50;1.50;;;17.30;62.90;;;;;;5056781;28;43597;-77
2023/03/16 05:47:28;;;;;;;1.70;1.70;;;17.20;62.90;;;;;;5063250;28;46067;-77
2023/03/16 05:49:57;;;;;;;1.40;1.40;;;17.20;63.20;;;;;;5067201;28;44794;-75
2023/03/16 05:52:32;;;;;;;1.50;1.50;;;17.20;63.10;;;;;;5073389;28;43404;-77
2023/03/16 05:55:05;;;;;;;1.50;1.50;;;17.10;63.00;;;;;;5073512;28;43573;-77
2023/03/16 05:57:33;;;;;;;1.30;1.30;;;17.10;63.20;;;;;;5068584;28;44721;-76
2023/03/16 06:00:10;;;;;;;1.30;1.30;;;17.10;63.30;;;;;;5067298;28;44538;-76
2023/03/16 06:02:39;;;;;;;1.43;1.43;;;17.00;63.40;;;;;;5048745;28;43313;-78
2023/03/16 06:05:08;;;;;;;1.67;1.67;;;17.00;63.60;;;;;;5060947;28;43503;-78
2023/03/16 06:07:40;;;;;;;1.50;1.50;;;17.00;63.30;;;;;;5049400;28;45784;-77
2023/03/16 06:10:11;;;;;;;1.23;1.23;;;17.00;63.40;;;;;;5050057;28;43435;-78
2023/03/16 06:12:40;;;;;;;1.40;1.40;;;17.00;63.50;;;;;;5054185;28;43526;-76
2023/03/16 06:15:10;;;;;;;1.47;1.47;;;17.00;63.50;;;;;;5050561;28;44072;-73
2023/03/16 06:17:38;;;;;;;1.47;1.47;;;17.00;63.70;;;;;;5052228;28;45551;-75
2023/03/16 06:20:10;;;;;;;1.63;1.63;;;16.90;64.50;;;;;;5055387;28;44511;-77
2023/03/16 06:22:40;;;;;;;1.60;1.60;;;16.90;63.60;;;;;;5046569;28;43755;-76
2023/03/16 06:25:08;;;;;;;1.53;1.53;;;17.00;63.60;;;;;;5054594;28;44106;-76
2023/03/16 06:27:37;;;;;;;1.30;1.30;;;17.00;63.60;;;;;;5049547;28;45718;-78
2023/03/16 06:30:12;;;;;;;1.40;1.40;;;17.00;63.70;;;;;;5054045;28;44118;-76
2023/03/16 06:32:41;;;;;;;1.40;1.40;;;16.90;64.10;;;;;;5049243;28;43460;-77
2023/03/16 06:35:10;;;;;;;1.50;1.50;;;16.90;63.70;;;;;;5055127;28;43557;-76
2023/03/16 06:37:42;;;;;;;1.30;1.30;;;16.90;63.80;;;;;;5054058;28;45695;-75
2023/03/16 06:40:25;;;;;;;1.47;1.47;;;17.00;63.50;;;;;;5056779;28;43497;-77
2023/03/16 06:42:55;;;;;;;1.30;1.30;;;17.20;63.20;;;;;;5055312;28;43411;-77
2023/03/16 06:45:24;;;;;;;1.40;1.40;;;17.30;62.80;;;;;;5054325;28;43642;-76
2023/03/16 06:47:56;;;;;;;1.57;1.57;;;17.30;62.50;;;;;;5049138;28;44031;-76
2023/03/16 06:50:24;;;;;;;1.40;1.40;;;17.30;62.70;;;;;;5053125;28;45047;-77
2023/03/16 06:52:53;;;;;;;1.50;1.50;;;17.20;62.90;;;;;;5053060;28;43842;-78
2023/03/16 06:55:21;;;;;;;1.50;1.50;;;17.20;62.60;;;;;;5061411;28;43488;-78
2023/03/16 06:57:50;;;;;;;1.50;1.50;;;17.20;62.80;;;;;;5047918;28;45539;-76
2023/03/16 07:00:20;;;;;;;1.60;1.60;;;17.20;62.90;;;;;;5052168;28;43499;-77
2023/03/16 07:02:50;;;;;;;1.37;1.37;;;17.20;63.10;;;;;;5050639;28;43441;-78
2023/03/16 07:05:18;;;;;;;1.50;1.50;;;17.10;63.00;;;;;;5050950;28;43431;-76
2023/03/16 07:07:47;;;;;;;1.43;1.43;;;17.10;63.30;;;;;;5048430;28;44735;-77
2023/03/16 07:10:17;;;;;;;1.50;1.50;;;17.10;63.20;;;;;;5054448;28;44741;-78
2023/03/16 07:12:45;;;;;;;1.37;1.37;;;17.10;63.30;;;;;;5049097;28;43436;-78
2023/03/16 07:15:13;;;;;;;1.40;1.40;;;17.10;63.30;;;;;;5053969;28;43439;-77
2023/03/16 07:17:41;;;;;;;1.50;1.50;;;17.00;63.30;;;;;;5052820;28;45481;-77
2023/03/16 07:20:12;;;;;;;1.37;1.37;;;17.00;63.50;;;;;;5050226;28;44992;-78
2023/03/16 07:22:41;;;;;;;1.60;1.60;;;17.00;63.50;;;;;;5050935;28;43344;-79
2023/03/16 07:25:12;;;;;;;1.40;1.40;;;17.00;63.50;;;;;;5048461;28;43567;-78
2023/03/16 07:27:46;;;;;;;1.50;1.50;;;17.00;63.50;;;;;;5051226;28;46936;-75
2023/03/16 07:30:21;;;;;;;1.40;1.40;;;17.00;63.50;;;;;;5053187;28;44052;-78
2023/03/16 07:32:50;;;;;;;1.47;1.47;;;17.00;63.50;;;;;;5046885;28;43416;-77
2023/03/16 07:35:22;;;;;;;1.30;1.30;;;16.90;63.50;;;;;;5051260;28;43516;-77
2023/03/16 07:37:50;;;;;;;1.50;1.50;;;16.90;63.60;;;;;;5049694;28;45018;-77
2023/03/16 07:40:20;;;;;;;1.50;1.50;;;16.90;63.80;;;;;;5052588;28;44555;-76
2023/03/16 07:42:48;;;;;;;1.33;1.33;;;17.00;63.60;;;;;;5063860;28;43414;-74
2023/03/16 07:45:26;;;;;;;1.50;1.50;;;17.10;63.30;;;;;;5068808;28;44067;-77
2023/03/16 07:47:55;;;;;;;1.50;1.50;;;17.20;62.90;;;;;;5072654;27;45560;-76
2023/03/16 07:50:48;;;;;;;1.40;1.40;;;17.30;62.80;;;;;;5074534;27;43406;-78
2023/03/16 07:53:16;;;;;;;1.47;1.47;;;17.20;62.80;;;;;;5070627;28;44008;-75
2023/03/16 07:55:49;;;;;;;1.47;1.47;;;17.20;63.00;;;;;;5070157;28;43483;-78
2023/03/16 07:58:18;;;;;;;1.40;1.40;;;17.20;62.90;;;;;;5072531;28;45896;-76
2023/03/16 08:00:49;;;;;;;1.37;1.37;;;17.20;63.00;;;;;;5074593;28;43507;-77
2023/03/16 08:03:16;;;;;;;1.20;1.20;;;17.10;63.00;;;;;;5067570;28;43457;-76
2023/03/16 08:05:48;;;;;;;1.53;1.53;;;17.10;63.10;;;;;;5071691;28;43407;-74
2023/03/16 08:08:16;;;;;;;1.50;1.50;;;17.10;63.30;;;;;;5072132;28;43595;-76
2023/03/16 08:10:47;;;;;;;1.30;1.30;;;17.00;63.30;;;;;;5072893;28;44751;-76
2023/03/16 08:13:18;;;;;;;1.37;1.37;;;17.00;63.30;;;;;;5073758;28;43450;-77
2023/03/16 08:15:47;;;;;;;1.30;1.30;;;17.00;63.30;;;;;;5073085;27;43505;-77
2023/03/16 08:18:23;;;;;;;1.40;1.40;;;17.00;63.40;;;;;;5068012;28;45972;-76
2023/03/16 08:20:54;;;;;;;1.47;1.47;;;17.00;63.50;;;;;;5070715;28;43401;-78
2023/03/16 08:23:23;;;;;;;1.20;1.20;;;17.00;63.50;;;;;;5075918;27;44059;-77
2023/03/16 08:25:52;;;;;;;1.20;1.20;;;16.90;63.60;;;;;;5071219;28;44091;-76
2023/03/16 08:28:21;;;;;;;1.37;1.37;;;17.00;63.80;;;;;;5067015;27;43797;-77
2023/03/16 08:30:51;;;;;;;1.30;1.30;;;17.00;64.20;;;;;;5070905;28;44807;-77
2023/03/16 08:33:37;;;;;;;1.40;1.40;;;17.20;63.20;;;;;;5071733;28;43486;-76
2023/03/16 08:36:08;;;;;;;1.33;1.33;;;17.20;63.00;;;;;;5068526;28;43914;-78
2023/03/16 08:38:37;;;;;;;1.30;1.30;;;17.10;63.00;;;;;;5050858;28;45330;-76
2023/03/16 08:41:07;;;;;;;1.13;1.13;;;17.10;63.00;;;;;;5061383;28;45030;-71
2023/03/16 08:43:36;;;;;;;1.30;1.30;;;17.10;63.30;;;;;;5051625;28;43411;-78
2023/03/16 08:46:05;;;;;;;1.27;1.27;;;17.10;63.00;;;;;;5058776;28;43468;-77
2023/03/16 08:48:45;;;;;;;1.17;1.17;;;17.10;63.10;;;;;;5050792;28;43825;-77
2023/03/16 08:51:14;;;;;;;1.40;1.40;;;17.00;63.10;;;;;;5055157;28;43910;-75
2023/03/16 08:53:43;;;;;;;1.20;1.20;;;17.00;63.20;;;;;;5064160;28;43983;-76
2023/03/16 08:56:13;;;;;;;1.30;1.30;;;17.00;63.30;;;;;;5059991;28;43554;-76
2023/03/16 08:58:44;;;;;;;1.30;1.30;;;17.00;63.60;;;;;;5060957;28;43607;-76
2023/03/16 09:01:12;;;;;;;1.10;1.10;;;17.00;63.40;;;;;;5056629;28;44601;-74
2023/03/16 09:03:40;;;;;;;1.20;1.20;;;17.00;63.50;;;;;;5056820;28;43426;-77
2023/03/16 09:06:09;;;;;;;1.20;1.20;;;17.00;63.50;;;;;;5056307;28;44005;-73
2023/03/16 09:08:39;;;;;;;1.20;1.20;;;17.00;63.50;;;;;;5057938;28;43938;-73
2023/03/16 09:11:08;;;;;;;1.10;1.10;;;16.90;63.50;;;;;;5057721;28;44645;-76
2023/03/16 09:13:37;;;;;;;1.20;1.20;;;16.90;63.60;;;;;;5062032;28;43613;-78
2023/03/16 09:16:05;;;;;;;1.03;1.03;;;16.90;63.50;;;;;;5057458;28;43553;-77
2023/03/16 09:18:34;;;;;;;1.30;1.30;;;16.90;63.50;;;;;;5053782;28;44033;-77
2023/03/16 09:21:03;;;;;;;1.30;1.30;;;16.90;63.50;;;;;;5054183;28;44015;-77
2023/03/16 09:23:31;;;;;;;1.07;1.07;;;16.90;63.50;;;;;;5049873;28;43488;-78
2023/03/16 09:26:02;;;;;;;1.13;1.13;;;16.90;63.60;;;;;;5057576;28;43483;-76
2023/03/16 09:28:30;;;;;;;1.20;1.20;;;16.90;63.70;;;;;;5060854;28;43853;-77
2023/03/16 09:30:58;;;;;;;1.13;1.13;;;16.90;63.90;;;;;;5059887;28;44973;-78
2023/03/16 09:33:27;;;;;;;1.00;1.00;;;17.00;63.70;;;;;;5058078;28;43363;-79
2023/03/16 09:35:56;;;;;;;1.10;1.10;;;17.10;63.40;;;;;;5059961;28;43522;-79
2023/03/16 09:38:25;;;;;;;1.20;1.20;;;17.20;63.00;;;;;;5053997;28;45710;-74
2023/03/16 09:40:57;;;;;;;1.00;1.00;;;17.20;62.80;;;;;;5053919;28;44900;-77
2023/03/16 09:43:37;;;;;;;1.00;1.00;;;17.20;62.90;;;;;;5051760;28;43407;-78
2023/03/16 09:46:08;;;;;;;1.10;1.10;;;17.20;63.20;;;;;;5050117;28;43403;-78
2023/03/16 09:48:36;;;;;;;1.10;1.10;;;17.10;63.00;;;;;;5060865;28;43677;-77
2023/03/16 09:51:06;;;;;;;1.03;1.03;;;17.10;63.00;;;;;;5055923;28;43412;-76
2023/03/16 09:53:35;;;;;;;1.20;1.20;;;17.10;63.20;;;;;;5047086;28;43470;-76
2023/03/16 09:56:40;;;;;;;1.00;1.00;;;17.10;63.30;;;;;;5056129;28;44256;-76
2023/03/16 09:59:47;;;;;;;1.00;1.00;;;17.00;63.50;;;;;;5062193;28;43610;-77
2023/03/16 10:02:56;;;;;;;1.10;1.10;;;17.00;63.70;;;;;;5052820;28;43328;-78
2023/03/16 10:05:24;;;;;;;0.90;0.90;;;17.00;63.70;;;;;;5063253;28;43384;-78
2023/03/16 10:08:14;;;;;;;1.20;1.20;;;17.00;63.70;;;;;;5055901;28;43510;-75
2023/03/16 10:11:03;;;;;;;0.90;0.90;;;16.90;63.70;;;;;;5047941;28;43999;-77
2023/03/16 10:13:51;;;;;;;1.00;1.00;;;16.90;63.70;;;;;;5055362;28;45912;-78
2023/03/16 10:16:22;;;;;;;1.00;1.00;;;16.90;63.80;;;;;;5065560;28;43455;-73
2023/03/16 10:18:53;;;;;;;1.20;1.20;;;16.90;64.00;;;;;;5061605;28;43961;-77
2023/03/16 10:21:21;;;;;;;1.20;1.20;;;17.00;63.70;;;;;;5049108;28;43859;-75
2023/03/16 10:23:51;;;;;;;1.00;1.00;;;17.10;62.90;;;;;;5056003;28;43506;-77
2023/03/16 10:26:22;;;;;;;1.10;1.10;;;17.10;63.00;;;;;;5058450;28;43456;-76
2023/03/16 10:28:51;;;;;;;1.00;1.00;;;17.10;63.10;;;;;;5056021;28;44099;-78
2023/03/16 10:31:22;;;;;;;1.00;1.00;;;17.10;63.20;;;;;;5058249;28;45667;-76
2023/03/16 10:33:50;;;;;;;1.07;1.00;;;17.00;64.10;;;;;;5055991;28;44687;-76
2023/03/16 10:36:24;;;;;;;1.00;1.00;;;17.00;63.30;;;;;;5054041;28;43489;-77
2023/03/16 10:38:54;;;;;;;1.07;1.07;;;17.00;63.20;;;;;;5052973;28;43910;-76
2023/03/16 10:41:25;;;;;;;1.10;1.10;;;17.00;63.20;;;;;;5051778;28;45778;-77
2023/03/16 10:43:56;;;;;;;1.00;1.00;;;17.00;63.50;;;;;;5050002;28;44623;-76
2023/03/16 10:46:26;;;;;;;1.10;1.10;;;17.00;63.50;;;;;;5056954;28;43432;-77
2023/03/16 10:48:58;;;;;;;0.90;0.90;;;17.00;63.70;;;;;;5052199;28;43861;-76
2023/03/16 10:51:28;;;;;;;1.20;1.10;;;17.00;63.60;;;;;;5052107;28;45423;-77
2023/03/16 10:54:07;;;;;;;1.20;1.20;;;17.00;63.60;;;;;;5050554;28;44687;-76
2023/03/16 10:56:37;;;;;;;1.00;1.00;;;17.00;63.70;;;;;;5052335;28;44049;-78
2023/03/16 10:59:16;;;;;;;1.10;1.10;;;17.00;63.90;;;;;;5056170;28;43423;-78
2023/03/16 11:01:49;;;;;;;1.00;1.00;;;17.00;63.90;;;;;;5054190;28;43845;-77
2023/03/16 11:04:19;;;;;;;0.90;0.90;;;17.00;64.80;;;;;;5049995;28;44039;-77
2023/03/16 11:06:49;;;;;;;0.90;0.90;;;17.00;64.00;;;;;;5049110;28;43415;-77
2023/03/16 11:09:20;;;;;;;1.10;1.10;;;17.10;63.80;;;;;;5056944;28;43534;-76
2023/03/16 11:11:48;;;;;;;0.90;0.90;;;17.10;63.50;;;;;;5056173;28;43617;-76
2023/03/16 11:14:19;;;;;;;1.43;1.00;;;17.10;63.60;;;;;;5047843;28;44361;-73
2023/03/16 11:16:55;;;;;;;1.00;1.00;;;17.10;63.70;;;;;;5057664;28;43500;-77
2023/03/16 11:19:24;;;;;;;0.80;0.80;;;17.10;63.80;;;;;;5052061;28;43465;-78
2023/03/16 11:21:54;;;;;;;0.80;0.80;;;17.10;63.80;;;;;;5057357;28;43786;-77
2023/03/16 11:24:24;;;;;;;0.70;0.70;;;17.10;63.90;;;;;;5053872;28;44642;-75
2023/03/16 11:26:54;;;;;;;1.00;1.00;;;17.10;64.00;;;;;;5054314;28;43388;-76
2023/03/16 11:29:24;;;;;;;0.90;0.90;;;17.10;64.20;;;;;;5060519;28;43439;-78
2023/03/16 11:31:55;;;;;;;0.90;0.90;;;17.10;64.30;;;;;;5056649;28;45967;-78
2023/03/16 11:34:26;;;;;;;0.90;0.90;;;17.10;64.40;;;;;;5055604;28;43479;-76
2023/03/16 11:36:55;;;;;;;0.80;0.80;;;17.10;64.60;;;;;;5057560;28;43419;-77
2023/03/16 11:39:34;;;;;;;0.93;0.93;;;17.10;64.40;;;;;;5059670;28;43458;-78
2023/03/16 11:42:27;;;;;;;0.80;0.80;;;17.20;64.10;;;;;;5053964;28;45664;-77
2023/03/16 11:45:00;;;;;;;0.93;0.93;;;17.20;64.20;;;;;;5054990;28;44628;-76
2023/03/16 11:47:43;;;;;;;0.90;0.90;;;17.20;64.30;;;;;;5054306;28;43942;-76
2023/03/16 11:50:14;;;;;;;0.90;0.90;;;17.20;64.30;;;;;;5052323;28;43933;-77
2023/03/16 11:52:46;;;;;;;1.00;1.00;;;17.20;64.40;;;;;;5057921;28;43596;-77
2023/03/16 11:55:22;;;;;;;2.57;1.00;;;17.20;64.40;;;;;;5050862;28;44650;-77
2023/03/16 11:57:55;;;;;;;0.90;0.90;;;17.20;64.40;;;;;;5052808;28;43435;-75
2023/03/16 12:00:35;;;;;;;0.80;0.80;;;17.20;64.60;;;;;;5057823;28;43569;-78
2023/03/16 12:03:26;;;;;;;0.90;0.90;;;17.20;64.60;;;;;;5054114;28;45790;-77
2023/03/16 12:05:57;;;;;;;0.90;0.90;;;17.20;64.70;;;;;;5019144;28;44002;-77
2023/03/16 12:08:31;;;;;;;1.07;1.07;;;17.10;64.70;;;;;;5061536;28;43503;-78
2023/03/16 12:11:01;;;;;;;1.03;1.03;;;17.10;64.70;;;;;;5061575;28;43463;-78
2023/03/16 12:13:46;;;;;;;1.00;1.00;;;17.10;64.70;;;;;;5053405;28;43820;-76
2023/03/16 12:16:18;;;;;;;0.87;0.87;;;17.10;64.80;;;;;;5050428;28;43317;-77
2023/03/16 12:18:49;;;;;;;0.90;0.90;;;17.10;65.60;;;;;;5059117;28;43463;-77
2023/03/16 12:21:19;;;;;;;1.10;1.10;;;17.10;64.90;;;;;;5055189;28;43293;-77
2023/03/16 12:23:55;;;;;;;0.90;0.90;;;17.10;65.00;;;;;;5058634;28;45747;-77
2023/03/16 12:26:24;;;;;;;1.00;1.00;;;17.20;64.80;;;;;;5061854;28;43487;-77
2023/03/16 12:28:53;;;;;;;1.17;1.13;;;17.20;64.70;;;;;;5055445;28;43501;-77
2023/03/16 12:31:23;;;;;;;0.90;0.90;;;17.30;64.80;;;;;;5056125;28;43589;-78
2023/03/16 12:34:02;;;;;;;1.00;1.00;;;17.20;64.70;;;;;;5055854;28;43994;-77
2023/03/16 12:36:51;;;;;;;1.00;1.00;;;17.30;64.80;;;;;;5050136;28;44829;-76
2023/03/16 12:39:24;;;;;;;1.10;1.10;;;17.20;64.70;;;;;;5056763;28;43398;-77
2023/03/16 12:41:59;;;;;;;1.23;1.20;;;17.20;64.80;;;;;;5055255;28;43412;-78
2023/03/16 12:44:31;;;;;;;0.90;0.90;;;17.30;64.80;;;;;;5055205;28;46447;-77
2023/03/16 12:47:01;;;;;;;0.97;0.97;;;17.20;64.80;;;;;;5056911;28;43491;-77
2023/03/16 12:49:32;;;;;;;0.90;0.90;;;17.20;64.90;;;;;;5052712;28;43476;-77
2023/03/16 12:52:01;;;;;;;0.87;0.87;;;17.20;65.00;;;;;;5051622;28;43414;-78
2023/03/16 12:54:29;;;;;;;1.10;1.10;;;17.20;64.90;;;;;;5055090;28;43941;-77
2023/03/16 12:57:00;;;;;;;0.93;0.93;;;17.20;64.70;;;;;;5052428;28;43500;-77
2023/03/16 12:59:37;;;;;;;0.70;0.70;;;17.30;64.50;;;;;;5064151;28;43993;-76
2023/03/16 13:02:05;;;;;;;0.80;0.80;;;17.30;64.50;;;;;;5052734;28;43522;-76
2023/03/16 13:04:35;;;;;;;1.00;1.00;;;17.30;64.60;;;;;;5055574;28;43860;-77
2023/03/16 13:07:04;;;;;;;1.10;1.10;;;17.30;64.60;;;;;;5049636;28;43446;-78
2023/03/16 13:09:35;;;;;;;0.90;0.90;;;17.20;64.60;;;;;;5054931;28;43454;-77
2023/03/16 13:12:05;;;;;;;0.80;0.80;;;17.20;64.60;;;;;;5056707;28;43448;-76